sensor_id;sensor_type;location;lat;lon;timestamp;temperature;humidity
57106;DHT22;61482;56.524;21.004;2022-07-01T00:02:02;20.40;99.90
57106;DHT22;61482;56.524;21.004;2022-07-01T00:04:29;20.40;99.90
57106;DHT22;61482;56.524;21.004;2022-07-01T00:07:06;20.40;99.90
57106;DHT22;61482;56.524;21.004;2022-07-01T00:09:40;20.30;99.90
57106;DHT22;61482;56.524;21.004;2022-07-01T00:12:07;19.80;99.90
57106;DHT22;61482;56.524;21.004;2022-07-01T00:14:35;19.60;99.90
57106;DHT22;61482;56.524;21.004;2022-07-01T00:17:05;19.30;99.90
57106;DHT22;61482;56.524;21.004;2022-07-01T00:19:32;19.10;99.90
57106;DHT22;61482;56.524;21.004;2022-07-01T00:22:00;19.00;99.90
57106;DHT22;61482;56.524;21.004;2022-07-01T00:24:27;19.00;99.90
57106;DHT22;61482;56.524;21.004;2022-07-01T00:26:54;19.00;99.90
57106;DHT22;61482;56.524;21.004;2022-07-01T00:29:21;18.90;99.90
57106;DHT22;61482;56.524;21.004;2022-07-01T00:31:50;18.90;99.90
57106;DHT22;61482;56.524;21.004;2022-07-01T00:34:17;19.00;99.90
57106;DHT22;61482;56.524;21.004;2022-07-01T00:36:44;19.00;99.90
57106;DHT22;61482;56.524;21.004;2022-07-01T00:39:11;19.10;99.90
57106;DHT22;61482;56.524;21.004;2022-07-01T00:41:38;19.30;99.90
57106;DHT22;61482;56.524;21.004;2022-07-01T00:44:05;19.30;99.90
57106;DHT22;61482;56.524;21.004;2022-07-01T00:46:32;19.40;99.90
57106;DHT22;61482;56.524;21.004;2022-07-01T00:49:00;19.40;99.90
57106;DHT22;61482;56.524;21.004;2022-07-01T00:51:28;19.30;99.90
57106;DHT22;61482;56.524;21.004;2022-07-01T00:53:55;19.30;99.90
57106;DHT22;61482;56.524;21.004;2022-07-01T00:56:25;19.30;99.90
57106;DHT22;61482;56.524;21.004;2022-07-01T00:58:52;19.20;99.90
57106;DHT22;61482;56.524;21.004;2022-07-01T01:01:19;19.20;99.90
57106;DHT22;61482;56.524;21.004;2022-07-01T01:03:48;19.20;99.90
57106;DHT22;61482;56.524;21.004;2022-07-01T01:06:16;19.20;99.90
57106;DHT22;61482;56.524;21.004;2022-07-01T01:08:43;19.20;99.90
57106;DHT22;61482;56.524;21.004;2022-07-01T01:11:10;19.30;99.90
57106;DHT22;61482;56.524;21.004;2022-07-01T01:13:38;19.20;99.90
57106;DHT22;61482;56.524;21.004;2022-07-01T01:16:05;19.20;99.90
57106;DHT22;61482;56.524;21.004;2022-07-01T01:18:32;19.20;99.90
57106;DHT22;61482;56.524;21.004;2022-07-01T01:21:00;19.20;99.90
57106;DHT22;61482;56.524;21.004;2022-07-01T01:23:27;19.20;99.90
57106;DHT22;61482;56.524;21.004;2022-07-01T01:25:54;19.20;99.90
57106;DHT22;61482;56.524;21.004;2022-07-01T01:28:23;19.20;99.90
57106;DHT22;61482;56.524;21.004;2022-07-01T01:30:51;19.20;99.90
57106;DHT22;61482;56.524;21.004;2022-07-01T01:33:19;19.20;99.90
57106;DHT22;61482;56.524;21.004;2022-07-01T01:35:46;19.20;99.90
57106;DHT22;61482;56.524;21.004;2022-07-01T01:38:13;19.20;99.90
57106;DHT22;61482;56.524;21.004;2022-07-01T01:40:40;19.20;99.90
57106;DHT22;61482;56.524;21.004;2022-07-01T01:43:07;19.20;99.90
57106;DHT22;61482;56.524;21.004;2022-07-01T01:45:33;19.20;99.90
57106;DHT22;61482;56.524;21.004;2022-07-01T01:48:01;19.20;99.90
57106;DHT22;61482;56.524;21.004;2022-07-01T01:50:28;19.20;99.90
57106;DHT22;61482;56.524;21.004;2022-07-01T01:52:55;19.30;99.90
57106;DHT22;61482;56.524;21.004;2022-07-01T01:55:22;19.30;99.90
57106;DHT22;61482;56.524;21.004;2022-07-01T01:57:49;19.20;99.90
57106;DHT22;61482;56.524;21.004;2022-07-01T02:00:16;19.20;99.90
57106;DHT22;61482;56.524;21.004;2022-07-01T02:02:44;19.20;99.90
57106;DHT22;61482;56.524;21.004;2022-07-01T02:05:12;19.20;99.90
57106;DHT22;61482;56.524;21.004;2022-07-01T02:07:40;19.10;99.90
57106;DHT22;61482;56.524;21.004;2022-07-01T02:10:08;19.20;99.90
57106;DHT22;61482;56.524;21.004;2022-07-01T02:12:35;19.10;99.90
57106;DHT22;61482;56.524;21.004;2022-07-01T02:15:02;19.10;99.90
57106;DHT22;61482;56.524;21.004;2022-07-01T02:17:29;19.00;99.90
57106;DHT22;61482;56.524;21.004;2022-07-01T02:19:56;19.00;99.90
57106;DHT22;61482;56.524;21.004;2022-07-01T02:22:23;18.90;99.90
57106;DHT22;61482;56.524;21.004;2022-07-01T02:24:50;18.90;99.90
57106;DHT22;61482;56.524;21.004;2022-07-01T02:27:17;18.90;99.90
57106;DHT22;61482;56.524;21.004;2022-07-01T02:29:46;18.90;99.90
57106;DHT22;61482;56.524;21.004;2022-07-01T02:32:13;18.80;99.90
57106;DHT22;61482;56.524;21.004;2022-07-01T02:34:40;18.80;99.90
57106;DHT22;61482;56.524;21.004;2022-07-01T02:37:08;18.80;99.90
57106;DHT22;61482;56.524;21.004;2022-07-01T02:39:35;18.80;99.90
57106;DHT22;61482;56.524;21.004;2022-07-01T02:42:02;18.80;99.90
57106;DHT22;61482;56.524;21.004;2022-07-01T02:44:48;18.80;99.90
57106;DHT22;61482;56.524;21.004;2022-07-01T02:47:15;18.80;99.90
57106;DHT22;61482;56.524;21.004;2022-07-01T02:49:42;18.80;99.90
57106;DHT22;61482;56.524;21.004;2022-07-01T02:52:10;18.80;99.90
57106;DHT22;61482;56.524;21.004;2022-07-01T02:54:37;18.90;99.90
57106;DHT22;61482;56.524;21.004;2022-07-01T02:57:04;18.90;99.90
57106;DHT22;61482;56.524;21.004;2022-07-01T02:59:31;18.90;99.90
57106;DHT22;61482;56.524;21.004;2022-07-01T03:01:58;19.00;99.90
57106;DHT22;61482;56.524;21.004;2022-07-01T03:04:25;19.00;99.90
57106;DHT22;61482;56.524;21.004;2022-07-01T03:06:53;19.10;99.90
57106;DHT22;61482;56.524;21.004;2022-07-01T03:09:22;19.10;99.90
57106;DHT22;61482;56.524;21.004;2022-07-01T03:11:49;19.20;99.90
57106;DHT22;61482;56.524;21.004;2022-07-01T03:14:16;19.20;99.90
57106;DHT22;61482;56.524;21.004;2022-07-01T03:16:43;19.30;99.90
57106;DHT22;61482;56.524;21.004;2022-07-01T03:19:10;19.30;99.90
57106;DHT22;61482;56.524;21.004;2022-07-01T03:21:37;19.40;99.90
57106;DHT22;61482;56.524;21.004;2022-07-01T03:24:04;19.50;99.90
57106;DHT22;61482;56.524;21.004;2022-07-01T03:26:31;19.50;99.90
57106;DHT22;61482;56.524;21.004;2022-07-01T03:29:04;19.60;99.90
57106;DHT22;61482;56.524;21.004;2022-07-01T03:31:31;19.60;99.90
57106;DHT22;61482;56.524;21.004;2022-07-01T03:34:01;19.70;99.90
57106;DHT22;61482;56.524;21.004;2022-07-01T03:36:28;19.80;99.90
57106;DHT22;61482;56.524;21.004;2022-07-01T03:38:55;19.70;99.90
57106;DHT22;61482;56.524;21.004;2022-07-01T03:41:22;19.80;99.90
57106;DHT22;61482;56.524;21.004;2022-07-01T03:43:49;19.80;99.90
57106;DHT22;61482;56.524;21.004;2022-07-01T03:46:16;19.90;99.90
57106;DHT22;61482;56.524;21.004;2022-07-01T03:48:44;20.00;99.90
57106;DHT22;61482;56.524;21.004;2022-07-01T03:51:11;20.00;99.90
57106;DHT22;61482;56.524;21.004;2022-07-01T03:53:38;20.00;99.90
57106;DHT22;61482;56.524;21.004;2022-07-01T03:56:24;20.10;99.90
57106;DHT22;61482;56.524;21.004;2022-07-01T03:58:51;20.20;99.90
57106;DHT22;61482;56.524;21.004;2022-07-01T04:01:18;20.30;99.90
57106;DHT22;61482;56.524;21.004;2022-07-01T04:03:45;20.30;99.90
57106;DHT22;61482;56.524;21.004;2022-07-01T04:06:12;20.40;99.90
57106;DHT22;61482;56.524;21.004;2022-07-01T04:08:40;20.40;99.90
57106;DHT22;61482;56.524;21.004;2022-07-01T04:11:07;20.50;99.90
57106;DHT22;61482;56.524;21.004;2022-07-01T04:13:36;20.60;99.90
57106;DHT22;61482;56.524;21.004;2022-07-01T04:16:06;20.70;99.90
57106;DHT22;61482;56.524;21.004;2022-07-01T04:18:33;20.90;99.90
57106;DHT22;61482;56.524;21.004;2022-07-01T04:21:01;20.90;99.90
57106;DHT22;61482;56.524;21.004;2022-07-01T04:23:46;21.00;99.90
57106;DHT22;61482;56.524;21.004;2022-07-01T04:26:13;21.10;99.90
57106;DHT22;61482;56.524;21.004;2022-07-01T04:29:01;21.10;99.90
57106;DHT22;61482;56.524;21.004;2022-07-01T04:31:28;21.20;99.90
57106;DHT22;61482;56.524;21.004;2022-07-01T04:33:55;21.20;99.90
57106;DHT22;61482;56.524;21.004;2022-07-01T04:36:22;21.20;99.90
57106;DHT22;61482;56.524;21.004;2022-07-01T04:38:49;21.20;99.90
57106;DHT22;61482;56.524;21.004;2022-07-01T04:41:17;21.20;99.90
57106;DHT22;61482;56.524;21.004;2022-07-01T04:44:03;21.20;99.90
57106;DHT22;61482;56.524;21.004;2022-07-01T04:46:30;21.20;99.90
57106;DHT22;61482;56.524;21.004;2022-07-01T04:48:57;21.30;99.90
57106;DHT22;61482;56.524;21.004;2022-07-01T04:51:24;21.40;99.90
57106;DHT22;61482;56.524;21.004;2022-07-01T04:53:52;21.40;99.90
57106;DHT22;61482;56.524;21.004;2022-07-01T04:56:19;21.40;99.90
57106;DHT22;61482;56.524;21.004;2022-07-01T04:58:47;21.40;99.90
57106;DHT22;61482;56.524;21.004;2022-07-01T05:01:14;21.40;99.90
57106;DHT22;61482;56.524;21.004;2022-07-01T05:03:41;21.80;99.90
57106;DHT22;61482;56.524;21.004;2022-07-01T05:06:09;21.90;99.90
57106;DHT22;61482;56.524;21.004;2022-07-01T05:08:36;21.90;99.90
57106;DHT22;61482;56.524;21.004;2022-07-01T05:11:03;21.70;99.90
57106;DHT22;61482;56.524;21.004;2022-07-01T05:13:30;21.50;99.90
57106;DHT22;61482;56.524;21.004;2022-07-01T05:15:58;21.40;99.90
57106;DHT22;61482;56.524;21.004;2022-07-01T05:18:25;21.40;99.90
57106;DHT22;61482;56.524;21.004;2022-07-01T05:21:11;21.30;99.90
57106;DHT22;61482;56.524;21.004;2022-07-01T05:24:07;21.30;99.90
57106;DHT22;61482;56.524;21.004;2022-07-01T05:26:34;21.10;99.90
57106;DHT22;61482;56.524;21.004;2022-07-01T05:29:02;21.00;99.90
57106;DHT22;61482;56.524;21.004;2022-07-01T05:31:29;21.00;99.90
57106;DHT22;61482;56.524;21.004;2022-07-01T05:33:56;21.00;99.90
57106;DHT22;61482;56.524;21.004;2022-07-01T05:36:30;21.00;99.90
57106;DHT22;61482;56.524;21.004;2022-07-01T05:38:57;20.90;99.90
57106;DHT22;61482;56.524;21.004;2022-07-01T05:41:24;20.70;99.90
57106;DHT22;61482;56.524;21.004;2022-07-01T05:43:51;20.50;99.90
57106;DHT22;61482;56.524;21.004;2022-07-01T05:46:18;20.40;99.90
57106;DHT22;61482;56.524;21.004;2022-07-01T05:48:45;20.40;99.90
57106;DHT22;61482;56.524;21.004;2022-07-01T05:51:13;20.30;99.90
57106;DHT22;61482;56.524;21.004;2022-07-01T05:53:40;20.30;99.90
57106;DHT22;61482;56.524;21.004;2022-07-01T05:56:09;20.30;99.90
57106;DHT22;61482;56.524;21.004;2022-07-01T05:58:37;20.30;99.90
57106;DHT22;61482;56.524;21.004;2022-07-01T06:01:04;20.40;99.90
57106;DHT22;61482;56.524;21.004;2022-07-01T06:03:35;20.50;99.90
57106;DHT22;61482;56.524;21.004;2022-07-01T06:06:08;20.50;99.90
57106;DHT22;61482;56.524;21.004;2022-07-01T06:08:35;20.50;99.90
57106;DHT22;61482;56.524;21.004;2022-07-01T06:11:02;20.50;99.90
57106;DHT22;61482;56.524;21.004;2022-07-01T06:13:30;20.40;99.90
57106;DHT22;61482;56.524;21.004;2022-07-01T06:15:58;20.40;99.90
57106;DHT22;61482;56.524;21.004;2022-07-01T06:18:26;20.40;99.90
57106;DHT22;61482;56.524;21.004;2022-07-01T06:20:53;20.40;99.90
57106;DHT22;61482;56.524;21.004;2022-07-01T06:23:20;20.40;99.90
57106;DHT22;61482;56.524;21.004;2022-07-01T06:25:47;20.40;99.90
57106;DHT22;61482;56.524;21.004;2022-07-01T06:28:14;20.50;99.90
57106;DHT22;61482;56.524;21.004;2022-07-01T06:30:41;20.60;99.90
57106;DHT22;61482;56.524;21.004;2022-07-01T06:33:12;20.70;99.90
57106;DHT22;61482;56.524;21.004;2022-07-01T06:35:45;20.80;99.90
57106;DHT22;61482;56.524;21.004;2022-07-01T06:38:14;20.90;99.90
57106;DHT22;61482;56.524;21.004;2022-07-01T06:40:41;21.10;99.90
57106;DHT22;61482;56.524;21.004;2022-07-01T06:43:09;21.20;99.90
57106;DHT22;61482;56.524;21.004;2022-07-01T06:45:36;21.20;99.90
57106;DHT22;61482;56.524;21.004;2022-07-01T06:48:06;21.30;99.90
57106;DHT22;61482;56.524;21.004;2022-07-01T06:50:34;21.40;99.90
57106;DHT22;61482;56.524;21.004;2022-07-01T06:53:01;21.50;99.90
57106;DHT22;61482;56.524;21.004;2022-07-01T06:55:31;21.60;99.90
57106;DHT22;61482;56.524;21.004;2022-07-01T06:58:05;21.70;99.90
57106;DHT22;61482;56.524;21.004;2022-07-01T07:00:32;22.00;99.90
57106;DHT22;61482;56.524;21.004;2022-07-01T07:02:59;22.30;99.90
57106;DHT22;61482;56.524;21.004;2022-07-01T07:05:26;22.60;99.90
57106;DHT22;61482;56.524;21.004;2022-07-01T07:07:53;22.90;99.90
57106;DHT22;61482;56.524;21.004;2022-07-01T07:10:27;22.90;99.90
57106;DHT22;61482;56.524;21.004;2022-07-01T07:12:57;22.90;99.90
57106;DHT22;61482;56.524;21.004;2022-07-01T07:15:24;22.80;99.90
57106;DHT22;61482;56.524;21.004;2022-07-01T07:17:51;22.70;99.90
57106;DHT22;61482;56.524;21.004;2022-07-01T07:20:23;22.60;99.90
57106;DHT22;61482;56.524;21.004;2022-07-01T07:22:51;22.60;99.90
57106;DHT22;61482;56.524;21.004;2022-07-01T07:25:19;22.60;99.90
57106;DHT22;61482;56.524;21.004;2022-07-01T07:27:46;22.80;99.90
57106;DHT22;61482;56.524;21.004;2022-07-01T07:30:17;22.90;99.90
57106;DHT22;61482;56.524;21.004;2022-07-01T07:32:48;23.10;99.90
57106;DHT22;61482;56.524;21.004;2022-07-01T07:35:17;23.40;99.90
57106;DHT22;61482;56.524;21.004;2022-07-01T07:37:44;23.60;99.90
57106;DHT22;61482;56.524;21.004;2022-07-01T07:40:12;23.70;99.90
57106;DHT22;61482;56.524;21.004;2022-07-01T07:42:41;23.90;99.90
57106;DHT22;61482;56.524;21.004;2022-07-01T07:45:08;24.00;99.90
57106;DHT22;61482;56.524;21.004;2022-07-01T07:47:36;24.20;99.90
57106;DHT22;61482;56.524;21.004;2022-07-01T07:50:06;24.30;99.90
57106;DHT22;61482;56.524;21.004;2022-07-01T07:52:34;24.20;99.90
57106;DHT22;61482;56.524;21.004;2022-07-01T07:55:01;24.30;99.90
57106;DHT22;61482;56.524;21.004;2022-07-01T07:57:28;24.30;99.90
57106;DHT22;61482;56.524;21.004;2022-07-01T07:59:56;24.30;99.90
57106;DHT22;61482;56.524;21.004;2022-07-01T08:02:23;24.30;99.90
57106;DHT22;61482;56.524;21.004;2022-07-01T08:04:51;24.60;99.90
57106;DHT22;61482;56.524;21.004;2022-07-01T08:07:18;25.20;99.90
57106;DHT22;61482;56.524;21.004;2022-07-01T08:09:45;26.00;99.90
57106;DHT22;61482;56.524;21.004;2022-07-01T08:12:15;26.00;99.90
57106;DHT22;61482;56.524;21.004;2022-07-01T08:14:43;25.40;99.90
57106;DHT22;61482;56.524;21.004;2022-07-01T08:17:10;25.30;99.90
57106;DHT22;61482;56.524;21.004;2022-07-01T08:19:37;25.40;99.90
57106;DHT22;61482;56.524;21.004;2022-07-01T08:22:04;26.00;99.90
57106;DHT22;61482;56.524;21.004;2022-07-01T08:24:32;26.50;99.90
57106;DHT22;61482;56.524;21.004;2022-07-01T08:26:59;26.90;99.90
57106;DHT22;61482;56.524;21.004;2022-07-01T08:29:26;27.40;99.90
57106;DHT22;61482;56.524;21.004;2022-07-01T08:31:53;28.00;99.90
57106;DHT22;61482;56.524;21.004;2022-07-01T08:34:20;28.40;99.90
57106;DHT22;61482;56.524;21.004;2022-07-01T08:36:47;28.10;99.90
57106;DHT22;61482;56.524;21.004;2022-07-01T08:39:14;28.40;99.90
57106;DHT22;61482;56.524;21.004;2022-07-01T08:41:41;28.50;99.90
57106;DHT22;61482;56.524;21.004;2022-07-01T08:44:08;28.50;99.90
57106;DHT22;61482;56.524;21.004;2022-07-01T08:46:35;29.00;99.90
57106;DHT22;61482;56.524;21.004;2022-07-01T08:49:03;29.60;99.90
57106;DHT22;61482;56.524;21.004;2022-07-01T08:51:30;29.90;99.90
57106;DHT22;61482;56.524;21.004;2022-07-01T08:53:57;29.80;99.90
57106;DHT22;61482;56.524;21.004;2022-07-01T08:56:24;29.80;99.90
57106;DHT22;61482;56.524;21.004;2022-07-01T08:59:22;29.30;99.90
57106;DHT22;61482;56.524;21.004;2022-07-01T09:01:57;29.50;99.90
57106;DHT22;61482;56.524;21.004;2022-07-01T09:04:25;30.00;99.90
57106;DHT22;61482;56.524;21.004;2022-07-01T09:07:07;30.50;99.90
57106;DHT22;61482;56.524;21.004;2022-07-01T09:09:36;30.50;99.90
57106;DHT22;61482;56.524;21.004;2022-07-01T09:12:03;30.50;99.90
57106;DHT22;61482;56.524;21.004;2022-07-01T09:14:33;30.80;99.90
57106;DHT22;61482;56.524;21.004;2022-07-01T09:17:04;30.10;99.90
57106;DHT22;61482;56.524;21.004;2022-07-01T09:19:36;29.70;99.90
57106;DHT22;61482;56.524;21.004;2022-07-01T09:22:12;29.90;99.90
57106;DHT22;61482;56.524;21.004;2022-07-01T09:24:41;30.00;99.90
57106;DHT22;61482;56.524;21.004;2022-07-01T09:27:14;30.30;99.90
57106;DHT22;61482;56.524;21.004;2022-07-01T09:29:50;30.20;99.90
57106;DHT22;61482;56.524;21.004;2022-07-01T09:32:21;29.90;99.90
57106;DHT22;61482;56.524;21.004;2022-07-01T09:34:51;29.60;99.90
57106;DHT22;61482;56.524;21.004;2022-07-01T09:37:23;28.80;99.90
57106;DHT22;61482;56.524;21.004;2022-07-01T09:39:56;28.40;99.90
57106;DHT22;61482;56.524;21.004;2022-07-01T09:42:25;27.80;99.90
57106;DHT22;61482;56.524;21.004;2022-07-01T09:44:59;28.80;99.90
57106;DHT22;61482;56.524;21.004;2022-07-01T09:47:31;29.50;99.90
57106;DHT22;61482;56.524;21.004;2022-07-01T09:49:59;30.40;99.70
57106;DHT22;61482;56.524;21.004;2022-07-01T09:52:27;30.80;99.90
57106;DHT22;61482;56.524;21.004;2022-07-01T09:55:04;31.10;99.60
57106;DHT22;61482;56.524;21.004;2022-07-01T09:57:31;31.30;99.90
57106;DHT22;61482;56.524;21.004;2022-07-01T09:59:59;31.30;98.60
57106;DHT22;61482;56.524;21.004;2022-07-01T10:02:27;31.30;98.30
57106;DHT22;61482;56.524;21.004;2022-07-01T10:05:02;32.00;98.00
57106;DHT22;61482;56.524;21.004;2022-07-01T10:13:23;31.70;98.40
57106;DHT22;61482;56.524;21.004;2022-07-01T10:15:55;32.20;97.10
57106;DHT22;61482;56.524;21.004;2022-07-01T10:18:25;32.30;95.70
57106;DHT22;61482;56.524;21.004;2022-07-01T10:20:56;31.90;95.30
57106;DHT22;61482;56.524;21.004;2022-07-01T10:23:42;31.90;99.20
57106;DHT22;61482;56.524;21.004;2022-07-01T10:26:09;32.20;96.00
57106;DHT22;61482;56.524;21.004;2022-07-01T10:28:42;31.70;95.00
57106;DHT22;61482;56.524;21.004;2022-07-01T10:31:18;31.80;93.50
57106;DHT22;61482;56.524;21.004;2022-07-01T10:41:54;32.10;93.70
57106;DHT22;61482;56.524;21.004;2022-07-01T10:44:59;32.50;94.00
57106;DHT22;61482;56.524;21.004;2022-07-01T10:47:27;32.10;93.50
57106;DHT22;61482;56.524;21.004;2022-07-01T10:49:59;32.60;92.50
57106;DHT22;61482;56.524;21.004;2022-07-01T10:52:26;32.30;93.50
57106;DHT22;61482;56.524;21.004;2022-07-01T10:54:55;32.20;94.20
57106;DHT22;61482;56.524;21.004;2022-07-01T11:02:35;32.70;93.20
57106;DHT22;61482;56.524;21.004;2022-07-01T11:05:07;32.50;93.30
57106;DHT22;61482;56.524;21.004;2022-07-01T11:07:36;32.60;94.20
57106;DHT22;61482;56.524;21.004;2022-07-01T11:10:06;33.40;93.20
57106;DHT22;61482;56.524;21.004;2022-07-01T11:12:34;33.60;92.10
57106;DHT22;61482;56.524;21.004;2022-07-01T11:15:03;33.40;92.20
57106;DHT22;61482;56.524;21.004;2022-07-01T11:17:34;33.20;92.30
57106;DHT22;61482;56.524;21.004;2022-07-01T11:20:02;32.90;91.10
57106;DHT22;61482;56.524;21.004;2022-07-01T11:22:32;33.20;92.80
57106;DHT22;61482;56.524;21.004;2022-07-01T11:25:01;33.90;89.50
57106;DHT22;61482;56.524;21.004;2022-07-01T11:27:29;33.20;89.60
57106;DHT22;61482;56.524;21.004;2022-07-01T11:29:59;33.00;90.80
57106;DHT22;61482;56.524;21.004;2022-07-01T11:32:28;33.00;90.50
57106;DHT22;61482;56.524;21.004;2022-07-01T11:34:56;33.30;90.70
57106;DHT22;61482;56.524;21.004;2022-07-01T11:37:27;33.30;90.90
57106;DHT22;61482;56.524;21.004;2022-07-01T11:40:14;33.20;88.40
57106;DHT22;61482;56.524;21.004;2022-07-01T11:42:42;33.40;87.90
57106;DHT22;61482;56.524;21.004;2022-07-01T11:45:25;33.10;88.80
57106;DHT22;61482;56.524;21.004;2022-07-01T11:47:53;32.90;90.80
57106;DHT22;61482;56.524;21.004;2022-07-01T11:50:20;33.00;89.70
57106;DHT22;61482;56.524;21.004;2022-07-01T11:52:47;32.70;89.10
57106;DHT22;61482;56.524;21.004;2022-07-01T11:55:18;32.40;91.00
57106;DHT22;61482;56.524;21.004;2022-07-01T11:58:03;32.60;89.10
57106;DHT22;61482;56.524;21.004;2022-07-01T12:00:33;32.70;86.10
57106;DHT22;61482;56.524;21.004;2022-07-01T12:03:00;32.30;87.60
57106;DHT22;61482;56.524;21.004;2022-07-01T12:05:28;32.20;89.00
57106;DHT22;61482;56.524;21.004;2022-07-01T12:08:01;32.10;90.00
57106;DHT22;61482;56.524;21.004;2022-07-01T12:10:28;32.50;89.10
57106;DHT22;61482;56.524;21.004;2022-07-01T12:12:55;32.40;87.40
57106;DHT22;61482;56.524;21.004;2022-07-01T12:15:23;32.40;88.30
57106;DHT22;61482;56.524;21.004;2022-07-01T12:17:50;32.40;87.40
57106;DHT22;61482;56.524;21.004;2022-07-01T12:20:31;32.40;87.30
57106;DHT22;61482;56.524;21.004;2022-07-01T12:23:15;32.30;86.70
57106;DHT22;61482;56.524;21.004;2022-07-01T12:25:52;32.20;86.80
57106;DHT22;61482;56.524;21.004;2022-07-01T12:28:28;31.90;88.10
57106;DHT22;61482;56.524;21.004;2022-07-01T12:31:00;32.20;90.20
57106;DHT22;61482;56.524;21.004;2022-07-01T12:33:27;32.00;86.60
57106;DHT22;61482;56.524;21.004;2022-07-01T12:35:55;31.80;89.80
57106;DHT22;61482;56.524;21.004;2022-07-01T12:38:23;32.10;86.60
57106;DHT22;61482;56.524;21.004;2022-07-01T12:40:50;32.30;87.10
57106;DHT22;61482;56.524;21.004;2022-07-01T12:43:25;32.20;88.90
57106;DHT22;61482;56.524;21.004;2022-07-01T12:45:56;32.40;87.00
57106;DHT22;61482;56.524;21.004;2022-07-01T12:48:24;32.30;87.40
57106;DHT22;61482;56.524;21.004;2022-07-01T12:50:56;31.70;88.20
57106;DHT22;61482;56.524;21.004;2022-07-01T12:53:25;31.70;87.80
57106;DHT22;61482;56.524;21.004;2022-07-01T12:55:56;31.50;87.60
57106;DHT22;61482;56.524;21.004;2022-07-01T12:58:26;31.60;90.60
57106;DHT22;61482;56.524;21.004;2022-07-01T13:00:57;31.50;90.10
57106;DHT22;61482;56.524;21.004;2022-07-01T13:03:26;31.50;90.70
57106;DHT22;61482;56.524;21.004;2022-07-01T13:05:55;31.50;89.70
57106;DHT22;61482;56.524;21.004;2022-07-01T13:08:22;31.50;89.70
57106;DHT22;61482;56.524;21.004;2022-07-01T13:10:50;31.50;90.30
57106;DHT22;61482;56.524;21.004;2022-07-01T13:13:17;31.50;89.10
57106;DHT22;61482;56.524;21.004;2022-07-01T13:15:45;31.40;89.70
57106;DHT22;61482;56.524;21.004;2022-07-01T13:18:12;31.50;89.80
57106;DHT22;61482;56.524;21.004;2022-07-01T13:20:44;31.80;88.30
57106;DHT22;61482;56.524;21.004;2022-07-01T13:23:13;31.70;83.40
57106;DHT22;61482;56.524;21.004;2022-07-01T13:25:40;31.60;84.20
57106;DHT22;61482;56.524;21.004;2022-07-01T13:28:08;31.60;85.70
57106;DHT22;61482;56.524;21.004;2022-07-01T13:30:35;31.50;88.10
57106;DHT22;61482;56.524;21.004;2022-07-01T13:33:04;31.80;87.10
57106;DHT22;61482;56.524;21.004;2022-07-01T13:35:31;31.40;89.50
57106;DHT22;61482;56.524;21.004;2022-07-01T13:37:58;31.70;86.80
57106;DHT22;61482;56.524;21.004;2022-07-01T13:40:25;32.00;83.60
57106;DHT22;61482;56.524;21.004;2022-07-01T13:42:53;32.10;82.10
57106;DHT22;61482;56.524;21.004;2022-07-01T13:45:20;32.10;80.80
57106;DHT22;61482;56.524;21.004;2022-07-01T13:47:47;31.70;83.00
57106;DHT22;61482;56.524;21.004;2022-07-01T13:50:14;31.70;83.40
57106;DHT22;61482;56.524;21.004;2022-07-01T13:52:47;31.90;84.20
57106;DHT22;61482;56.524;21.004;2022-07-01T13:55:14;32.10;85.30
57106;DHT22;61482;56.524;21.004;2022-07-01T13:57:41;32.40;84.70
57106;DHT22;61482;56.524;21.004;2022-07-01T14:00:09;32.50;81.80
57106;DHT22;61482;56.524;21.004;2022-07-01T14:02:36;32.10;83.00
57106;DHT22;61482;56.524;21.004;2022-07-01T14:05:05;32.30;83.40
57106;DHT22;61482;56.524;21.004;2022-07-01T14:07:32;32.20;83.80
57106;DHT22;61482;56.524;21.004;2022-07-01T14:09:59;32.50;83.70
57106;DHT22;61482;56.524;21.004;2022-07-01T14:12:27;33.20;82.50
57106;DHT22;61482;56.524;21.004;2022-07-01T14:14:57;33.10;83.60
57106;DHT22;61482;56.524;21.004;2022-07-01T14:17:25;32.70;84.40
57106;DHT22;61482;56.524;21.004;2022-07-01T14:19:53;32.00;86.50
57106;DHT22;61482;56.524;21.004;2022-07-01T14:22:20;31.70;88.50
57106;DHT22;61482;56.524;21.004;2022-07-01T14:24:47;31.30;90.10
57106;DHT22;61482;56.524;21.004;2022-07-01T14:27:14;31.20;89.80
57106;DHT22;61482;56.524;21.004;2022-07-01T14:29:41;31.30;90.60
57106;DHT22;61482;56.524;21.004;2022-07-01T14:32:08;31.10;91.60
57106;DHT22;61482;56.524;21.004;2022-07-01T14:34:35;30.80;91.00
57106;DHT22;61482;56.524;21.004;2022-07-01T14:37:03;30.90;92.10
57106;DHT22;61482;56.524;21.004;2022-07-01T14:39:30;30.80;93.20
57106;DHT22;61482;56.524;21.004;2022-07-01T14:41:57;30.80;92.90
57106;DHT22;61482;56.524;21.004;2022-07-01T14:44:24;31.30;92.70
57106;DHT22;61482;56.524;21.004;2022-07-01T14:46:51;31.80;91.20
57106;DHT22;61482;56.524;21.004;2022-07-01T14:49:18;32.20;90.70
57106;DHT22;61482;56.524;21.004;2022-07-01T14:51:45;32.80;90.10
57106;DHT22;61482;56.524;21.004;2022-07-01T14:54:13;32.90;90.10
57106;DHT22;61482;56.524;21.004;2022-07-01T14:56:40;33.10;88.40
57106;DHT22;61482;56.524;21.004;2022-07-01T14:59:07;33.10;88.90
57106;DHT22;61482;56.524;21.004;2022-07-01T15:01:37;32.50;89.80
57106;DHT22;61482;56.524;21.004;2022-07-01T15:04:04;31.90;90.40
57106;DHT22;61482;56.524;21.004;2022-07-01T15:06:31;31.70;91.40
57106;DHT22;61482;56.524;21.004;2022-07-01T15:08:58;31.50;91.60
57106;DHT22;61482;56.524;21.004;2022-07-01T15:11:25;31.30;92.20
57106;DHT22;61482;56.524;21.004;2022-07-01T15:13:52;31.50;91.90
57106;DHT22;61482;56.524;21.004;2022-07-01T15:16:19;31.60;91.30
57106;DHT22;61482;56.524;21.004;2022-07-01T15:18:46;31.40;92.60
57106;DHT22;61482;56.524;21.004;2022-07-01T15:21:13;31.40;92.30
57106;DHT22;61482;56.524;21.004;2022-07-01T15:23:40;31.30;93.10
57106;DHT22;61482;56.524;21.004;2022-07-01T15:26:07;31.40;93.70
57106;DHT22;61482;56.524;21.004;2022-07-01T15:28:34;31.80;92.60
57106;DHT22;61482;56.524;21.004;2022-07-01T15:31:02;32.10;92.30
57106;DHT22;61482;56.524;21.004;2022-07-01T15:33:29;32.10;91.60
57106;DHT22;61482;56.524;21.004;2022-07-01T15:35:56;32.50;92.40
57106;DHT22;61482;56.524;21.004;2022-07-01T15:38:23;32.20;91.90
57106;DHT22;61482;56.524;21.004;2022-07-01T15:40:53;32.00;92.10
57106;DHT22;61482;56.524;21.004;2022-07-01T15:43:21;31.50;93.10
57106;DHT22;61482;56.524;21.004;2022-07-01T15:45:48;31.40;93.80